sensor_id;sensor_type;location;lat;lon;timestamp;P1;durP1;ratioP1;P2;durP2;ratioP2
70369;SDS011;57790;51.356;-2.906;2023-07-31T00:00:55;1.93;;;0.60;;
70369;SDS011;57790;51.356;-2.906;2023-07-31T00:03:55;2.20;;;0.60;;
70369;SDS011;57790;51.356;-2.906;2023-07-31T00:06:55;2.53;;;0.70;;
70369;SDS011;57790;51.356;-2.906;2023-07-31T00:09:56;2.88;;;0.70;;
70369;SDS011;57790;51.356;-2.906;2023-07-31T00:12:56;2.00;;;0.50;;
70369;SDS011;57790;51.356;-2.906;2023-07-31T00:15:57;2.43;;;0.60;;
70369;SDS011;57790;51.356;-2.906;2023-07-31T00:18:57;2.17;;;0.60;;
70369;SDS011;57790;51.356;-2.906;2023-07-31T00:21:58;1.67;;;0.53;;
70369;SDS011;57790;51.356;-2.906;2023-07-31T00:24:58;2.03;;;0.50;;
70369;SDS011;57790;51.356;-2.906;2023-07-31T00:27:59;2.08;;;0.60;;
70369;SDS011;57790;51.356;-2.906;2023-07-31T00:31:00;1.63;;;0.60;;
70369;SDS011;57790;51.356;-2.906;2023-07-31T00:34:01;3.55;;;0.60;;
70369;SDS011;57790;51.356;-2.906;2023-07-31T00:37:02;1.63;;;0.60;;
70369;SDS011;57790;51.356;-2.906;2023-07-31T00:40:02;1.92;;;0.50;;
70369;SDS011;57790;51.356;-2.906;2023-07-31T00:43:03;2.45;;;0.60;;
70369;SDS011;57790;51.356;-2.906;2023-07-31T00:46:04;2.50;;;0.50;;
70369;SDS011;57790;51.356;-2.906;2023-07-31T00:49:04;2.43;;;0.50;;
70369;SDS011;57790;51.356;-2.906;2023-07-31T00:52:05;4.32;;;0.75;;
70369;SDS011;57790;51.356;-2.906;2023-07-31T00:55:06;3.28;;;0.80;;
70369;SDS011;57790;51.356;-2.906;2023-07-31T00:58:08;1.70;;;0.60;;
70369;SDS011;57790;51.356;-2.906;2023-07-31T01:01:08;2.13;;;0.50;;
70369;SDS011;57790;51.356;-2.906;2023-07-31T01:04:09;2.90;;;0.70;;
70369;SDS011;57790;51.356;-2.906;2023-07-31T01:07:31;3.07;;;0.60;;
70369;SDS011;57790;51.356;-2.906;2023-07-31T01:11:07;1.45;;;0.50;;
70369;SDS011;57790;51.356;-2.906;2023-07-31T01:14:28;2.33;;;0.52;;
70369;SDS011;57790;51.356;-2.906;2023-07-31T01:17:28;1.70;;;0.50;;
70369;SDS011;57790;51.356;-2.906;2023-07-31T01:20:29;1.40;;;0.40;;
70369;SDS011;57790;51.356;-2.906;2023-07-31T01:26:55;3.22;;;0.60;;
70369;SDS011;57790;51.356;-2.906;2023-07-31T01:33:19;1.65;;;0.60;;
70369;SDS011;57790;51.356;-2.906;2023-07-31T01:36:20;2.07;;;0.60;;
70369;SDS011;57790;51.356;-2.906;2023-07-31T01:39:20;2.07;;;0.60;;
70369;SDS011;57790;51.356;-2.906;2023-07-31T01:42:21;1.43;;;0.50;;
70369;SDS011;57790;51.356;-2.906;2023-07-31T01:45:21;1.53;;;0.50;;
70369;SDS011;57790;51.356;-2.906;2023-07-31T01:48:22;1.53;;;0.47;;
70369;SDS011;57790;51.356;-2.906;2023-07-31T01:51:22;1.47;;;0.50;;
70369;SDS011;57790;51.356;-2.906;2023-07-31T01:54:22;1.23;;;0.40;;
70369;SDS011;57790;51.356;-2.906;2023-07-31T01:57:23;2.90;;;0.63;;
70369;SDS011;57790;51.356;-2.906;2023-07-31T02:00:23;3.72;;;0.75;;
70369;SDS011;57790;51.356;-2.906;2023-07-31T02:03:24;5.50;;;0.70;;
70369;SDS011;57790;51.356;-2.906;2023-07-31T02:06:24;6.07;;;1.00;;
70369;SDS011;57790;51.356;-2.906;2023-07-31T02:09:24;6.80;;;1.10;;
70369;SDS011;57790;51.356;-2.906;2023-07-31T02:12:25;6.13;;;0.97;;
70369;SDS011;57790;51.356;-2.906;2023-07-31T02:15:25;6.97;;;1.30;;
70369;SDS011;57790;51.356;-2.906;2023-07-31T02:18:26;8.07;;;1.40;;
70369;SDS011;57790;51.356;-2.906;2023-07-31T02:21:26;7.43;;;1.07;;
70369;SDS011;57790;51.356;-2.906;2023-07-31T02:24:26;6.43;;;1.27;;
70369;SDS011;57790;51.356;-2.906;2023-07-31T02:27:27;7.10;;;1.30;;
70369;SDS011;57790;51.356;-2.906;2023-07-31T02:30:27;10.77;;;1.50;;
70369;SDS011;57790;51.356;-2.906;2023-07-31T02:33:28;9.40;;;1.63;;
70369;SDS011;57790;51.356;-2.906;2023-07-31T02:36:28;7.33;;;1.17;;
70369;SDS011;57790;51.356;-2.906;2023-07-31T02:39:29;8.47;;;1.60;;
70369;SDS011;57790;51.356;-2.906;2023-07-31T02:42:29;7.23;;;1.10;;
70369;SDS011;57790;51.356;-2.906;2023-07-31T02:45:29;8.73;;;1.60;;
70369;SDS011;57790;51.356;-2.906;2023-07-31T02:48:30;10.10;;;1.40;;
70369;SDS011;57790;51.356;-2.906;2023-07-31T02:51:30;9.20;;;1.50;;
70369;SDS011;57790;51.356;-2.906;2023-07-31T02:54:31;8.37;;;1.50;;
70369;SDS011;57790;51.356;-2.906;2023-07-31T02:57:31;9.57;;;1.77;;
70369;SDS011;57790;51.356;-2.906;2023-07-31T03:00:31;9.23;;;1.70;;
70369;SDS011;57790;51.356;-2.906;2023-07-31T03:03:32;7.32;;;1.40;;
70369;SDS011;57790;51.356;-2.906;2023-07-31T03:06:32;8.53;;;1.90;;
70369;SDS011;57790;51.356;-2.906;2023-07-31T03:09:33;10.70;;;2.00;;
70369;SDS011;57790;51.356;-2.906;2023-07-31T03:12:33;10.10;;;2.23;;
70369;SDS011;57790;51.356;-2.906;2023-07-31T03:15:33;8.73;;;1.70;;
70369;SDS011;57790;51.356;-2.906;2023-07-31T03:18:34;9.13;;;1.60;;
70369;SDS011;57790;51.356;-2.906;2023-07-31T03:21:34;11.17;;;2.00;;
70369;SDS011;57790;51.356;-2.906;2023-07-31T03:24:34;11.97;;;2.17;;
70369;SDS011;57790;51.356;-2.906;2023-07-31T03:27:35;8.88;;;1.80;;
70369;SDS011;57790;51.356;-2.906;2023-07-31T03:30:36;10.40;;;2.27;;
70369;SDS011;57790;51.356;-2.906;2023-07-31T03:33:38;9.40;;;1.90;;
70369;SDS011;57790;51.356;-2.906;2023-07-31T03:36:38;10.83;;;2.10;;
70369;SDS011;57790;51.356;-2.906;2023-07-31T03:39:39;9.00;;;2.20;;
70369;SDS011;57790;51.356;-2.906;2023-07-31T03:42:39;9.57;;;2.47;;
70369;SDS011;57790;51.356;-2.906;2023-07-31T03:45:39;8.77;;;2.43;;
70369;SDS011;57790;51.356;-2.906;2023-07-31T03:48:40;11.30;;;2.25;;
70369;SDS011;57790;51.356;-2.906;2023-07-31T03:51:40;8.83;;;2.33;;
70369;SDS011;57790;51.356;-2.906;2023-07-31T03:54:41;11.02;;;2.30;;
70369;SDS011;57790;51.356;-2.906;2023-07-31T03:57:44;9.20;;;2.00;;
70369;SDS011;57790;51.356;-2.906;2023-07-31T04:00:45;8.57;;;2.20;;
70369;SDS011;57790;51.356;-2.906;2023-07-31T04:03:45;7.77;;;2.23;;
70369;SDS011;57790;51.356;-2.906;2023-07-31T04:06:45;9.60;;;2.27;;
70369;SDS011;57790;51.356;-2.906;2023-07-31T04:09:46;11.70;;;2.57;;
70369;SDS011;57790;51.356;-2.906;2023-07-31T04:12:46;9.05;;;2.20;;
70369;SDS011;57790;51.356;-2.906;2023-07-31T04:15:50;10.53;;;2.40;;
70369;SDS011;57790;51.356;-2.906;2023-07-31T04:18:54;10.45;;;2.33;;
70369;SDS011;57790;51.356;-2.906;2023-07-31T04:21:54;10.27;;;2.30;;
70369;SDS011;57790;51.356;-2.906;2023-07-31T04:24:55;12.30;;;2.40;;
70369;SDS011;57790;51.356;-2.906;2023-07-31T04:27:55;8.33;;;2.27;;
70369;SDS011;57790;51.356;-2.906;2023-07-31T04:30:55;9.10;;;2.30;;
70369;SDS011;57790;51.356;-2.906;2023-07-31T04:33:56;10.80;;;2.40;;
70369;SDS011;57790;51.356;-2.906;2023-07-31T04:36:56;9.13;;;2.33;;
70369;SDS011;57790;51.356;-2.906;2023-07-31T04:39:56;9.00;;;2.53;;
70369;SDS011;57790;51.356;-2.906;2023-07-31T04:42:57;10.43;;;2.00;;
70369;SDS011;57790;51.356;-2.906;2023-07-31T04:45:57;8.60;;;2.03;;
70369;SDS011;57790;51.356;-2.906;2023-07-31T04:48:58;11.57;;;2.40;;
70369;SDS011;57790;51.356;-2.906;2023-07-31T04:51:58;7.83;;;2.03;;
70369;SDS011;57790;51.356;-2.906;2023-07-31T04:54:59;7.85;;;1.98;;
70369;SDS011;57790;51.356;-2.906;2023-07-31T04:57:59;8.47;;;2.00;;
70369;SDS011;57790;51.356;-2.906;2023-07-31T05:00:59;7.30;;;1.83;;
70369;SDS011;57790;51.356;-2.906;2023-07-31T05:04:00;6.13;;;1.70;;
70369;SDS011;57790;51.356;-2.906;2023-07-31T05:07:00;8.50;;;1.90;;
70369;SDS011;57790;51.356;-2.906;2023-07-31T05:10:01;10.13;;;2.10;;
70369;SDS011;57790;51.356;-2.906;2023-07-31T05:13:01;9.73;;;2.60;;
70369;SDS011;57790;51.356;-2.906;2023-07-31T05:16:02;9.87;;;2.00;;
70369;SDS011;57790;51.356;-2.906;2023-07-31T05:19:02;8.73;;;1.97;;
70369;SDS011;57790;51.356;-2.906;2023-07-31T05:22:02;8.27;;;2.50;;
70369;SDS011;57790;51.356;-2.906;2023-07-31T05:25:03;9.50;;;2.00;;
70369;SDS011;57790;51.356;-2.906;2023-07-31T05:28:04;9.57;;;2.10;;
70369;SDS011;57790;51.356;-2.906;2023-07-31T05:31:04;10.60;;;2.10;;
70369;SDS011;57790;51.356;-2.906;2023-07-31T05:34:05;7.83;;;1.90;;
70369;SDS011;57790;51.356;-2.906;2023-07-31T05:37:05;9.03;;;2.40;;
70369;SDS011;57790;51.356;-2.906;2023-07-31T05:40:06;8.80;;;2.17;;
70369;SDS011;57790;51.356;-2.906;2023-07-31T05:43:07;6.32;;;1.55;;
70369;SDS011;57790;51.356;-2.906;2023-07-31T05:46:08;8.80;;;2.00;;
70369;SDS011;57790;51.356;-2.906;2023-07-31T05:49:09;10.85;;;2.20;;
70369;SDS011;57790;51.356;-2.906;2023-07-31T05:52:09;9.27;;;2.00;;
70369;SDS011;57790;51.356;-2.906;2023-07-31T05:55:10;9.50;;;1.90;;
70369;SDS011;57790;51.356;-2.906;2023-07-31T05:58:10;9.75;;;1.90;;
70369;SDS011;57790;51.356;-2.906;2023-07-31T06:01:11;9.80;;;1.93;;
70369;SDS011;57790;51.356;-2.906;2023-07-31T06:04:11;8.27;;;2.13;;
70369;SDS011;57790;51.356;-2.906;2023-07-31T06:07:11;9.60;;;1.67;;
70369;SDS011;57790;51.356;-2.906;2023-07-31T06:10:12;8.70;;;1.90;;
70369;SDS011;57790;51.356;-2.906;2023-07-31T06:13:13;6.47;;;1.50;;
70369;SDS011;57790;51.356;-2.906;2023-07-31T06:16:13;7.27;;;2.23;;
70369;SDS011;57790;51.356;-2.906;2023-07-31T06:19:14;6.63;;;1.50;;
70369;SDS011;57790;51.356;-2.906;2023-07-31T06:22:14;6.80;;;1.60;;
70369;SDS011;57790;51.356;-2.906;2023-07-31T06:25:15;12.48;;;2.08;;
70369;SDS011;57790;51.356;-2.906;2023-07-31T06:28:16;7.80;;;1.60;;
70369;SDS011;57790;51.356;-2.906;2023-07-31T06:31:16;5.80;;;1.30;;
70369;SDS011;57790;51.356;-2.906;2023-07-31T06:34:20;8.02;;;1.33;;
70369;SDS011;57790;51.356;-2.906;2023-07-31T06:37:20;6.27;;;1.40;;
70369;SDS011;57790;51.356;-2.906;2023-07-31T06:40:21;8.20;;;1.50;;
70369;SDS011;57790;51.356;-2.906;2023-07-31T06:43:22;7.03;;;1.30;;
70369;SDS011;57790;51.356;-2.906;2023-07-31T06:46:22;5.50;;;1.33;;
70369;SDS011;57790;51.356;-2.906;2023-07-31T06:49:23;5.87;;;1.80;;
70369;SDS011;57790;51.356;-2.906;2023-07-31T06:52:23;6.83;;;1.53;;
70369;SDS011;57790;51.356;-2.906;2023-07-31T06:55:23;5.88;;;1.05;;
70369;SDS011;57790;51.356;-2.906;2023-07-31T06:58:24;7.67;;;1.30;;
70369;SDS011;57790;51.356;-2.906;2023-07-31T07:01:25;6.10;;;1.33;;
70369;SDS011;57790;51.356;-2.906;2023-07-31T07:04:25;5.60;;;1.13;;
70369;SDS011;57790;51.356;-2.906;2023-07-31T07:07:26;5.68;;;1.10;;
70369;SDS011;57790;51.356;-2.906;2023-07-31T07:10:27;3.13;;;0.70;;
70369;SDS011;57790;51.356;-2.906;2023-07-31T07:13:27;5.87;;;1.30;;
70369;SDS011;57790;51.356;-2.906;2023-07-31T07:16:28;3.63;;;0.87;;
70369;SDS011;57790;51.356;-2.906;2023-07-31T07:19:28;5.80;;;1.00;;
70369;SDS011;57790;51.356;-2.906;2023-07-31T07:22:29;5.97;;;1.20;;
70369;SDS011;57790;51.356;-2.906;2023-07-31T07:25:29;4.87;;;0.93;;
70369;SDS011;57790;51.356;-2.906;2023-07-31T07:28:29;7.00;;;1.40;;
70369;SDS011;57790;51.356;-2.906;2023-07-31T07:31:30;6.90;;;1.40;;
70369;SDS011;57790;51.356;-2.906;2023-07-31T07:34:31;4.47;;;1.10;;
70369;SDS011;57790;51.356;-2.906;2023-07-31T07:37:31;5.97;;;1.00;;
70369;SDS011;57790;51.356;-2.906;2023-07-31T07:40:31;5.93;;;1.20;;
70369;SDS011;57790;51.356;-2.906;2023-07-31T07:43:32;4.63;;;1.13;;
70369;SDS011;57790;51.356;-2.906;2023-07-31T07:46:32;5.47;;;1.40;;
70369;SDS011;57790;51.356;-2.906;2023-07-31T07:49:33;6.10;;;1.17;;
70369;SDS011;57790;51.356;-2.906;2023-07-31T07:52:34;6.35;;;1.10;;
70369;SDS011;57790;51.356;-2.906;2023-07-31T07:55:35;5.43;;;1.10;;
70369;SDS011;57790;51.356;-2.906;2023-07-31T07:58:35;6.60;;;1.30;;
70369;SDS011;57790;51.356;-2.906;2023-07-31T08:01:36;6.47;;;1.23;;
70369;SDS011;57790;51.356;-2.906;2023-07-31T08:04:36;8.83;;;1.83;;
70369;SDS011;57790;51.356;-2.906;2023-07-31T08:07:36;6.57;;;1.40;;
70369;SDS011;57790;51.356;-2.906;2023-07-31T08:10:37;8.85;;;1.55;;
70369;SDS011;57790;51.356;-2.906;2023-07-31T08:13:37;6.60;;;1.47;;
70369;SDS011;57790;51.356;-2.906;2023-07-31T08:16:38;7.30;;;1.73;;
70369;SDS011;57790;51.356;-2.906;2023-07-31T08:19:38;7.37;;;1.70;;
70369;SDS011;57790;51.356;-2.906;2023-07-31T08:22:39;6.83;;;1.30;;
70369;SDS011;57790;51.356;-2.906;2023-07-31T08:25:39;8.90;;;1.73;;
70369;SDS011;57790;51.356;-2.906;2023-07-31T08:28:39;10.13;;;2.23;;
70369;SDS011;57790;51.356;-2.906;2023-07-31T08:31:40;8.83;;;2.23;;
70369;SDS011;57790;51.356;-2.906;2023-07-31T08:34:40;8.27;;;1.67;;
70369;SDS011;57790;51.356;-2.906;2023-07-31T08:37:41;8.63;;;1.77;;
70369;SDS011;57790;51.356;-2.906;2023-07-31T08:40:42;8.13;;;1.60;;
70369;SDS011;57790;51.356;-2.906;2023-07-31T08:43:42;6.80;;;1.77;;
70369;SDS011;57790;51.356;-2.906;2023-07-31T08:46:45;8.60;;;1.98;;
70369;SDS011;57790;51.356;-2.906;2023-07-31T08:49:47;8.33;;;1.90;;
70369;SDS011;57790;51.356;-2.906;2023-07-31T08:52:49;8.55;;;1.77;;
70369;SDS011;57790;51.356;-2.906;2023-07-31T08:55:52;8.82;;;1.80;;
70369;SDS011;57790;51.356;-2.906;2023-07-31T08:58:53;12.13;;;2.10;;
70369;SDS011;57790;51.356;-2.906;2023-07-31T09:01:55;9.15;;;1.90;;
70369;SDS011;57790;51.356;-2.906;2023-07-31T09:04:57;11.50;;;2.30;;
70369;SDS011;57790;51.356;-2.906;2023-07-31T09:07:58;8.50;;;1.90;;
70369;SDS011;57790;51.356;-2.906;2023-07-31T09:11:01;9.85;;;2.08;;
70369;SDS011;57790;51.356;-2.906;2023-07-31T09:14:05;8.43;;;2.05;;
70369;SDS011;57790;51.356;-2.906;2023-07-31T09:17:08;9.17;;;2.13;;
70369;SDS011;57790;51.356;-2.906;2023-07-31T09:20:19;12.82;;;2.30;;
70369;SDS011;57790;51.356;-2.906;2023-07-31T09:23:20;10.47;;;2.03;;
70369;SDS011;57790;51.356;-2.906;2023-07-31T09:26:28;9.90;;;2.42;;
70369;SDS011;57790;51.356;-2.906;2023-07-31T09:29:29;10.60;;;2.30;;
70369;SDS011;57790;51.356;-2.906;2023-07-31T09:32:30;10.43;;;2.30;;
70369;SDS011;57790;51.356;-2.906;2023-07-31T09:35:33;10.68;;;2.33;;
70369;SDS011;57790;51.356;-2.906;2023-07-31T09:38:34;12.55;;;2.63;;
70369;SDS011;57790;51.356;-2.906;2023-07-31T09:41:39;10.98;;;2.13;;
70369;SDS011;57790;51.356;-2.906;2023-07-31T09:44:40;10.90;;;2.30;;
70369;SDS011;57790;51.356;-2.906;2023-07-31T09:47:46;10.35;;;2.40;;
70369;SDS011;57790;51.356;-2.906;2023-07-31T09:50:48;9.63;;;2.47;;
70369;SDS011;57790;51.356;-2.906;2023-07-31T09:53:52;9.93;;;2.00;;
70369;SDS011;57790;51.356;-2.906;2023-07-31T09:56:52;11.93;;;2.53;;
70369;SDS011;57790;51.356;-2.906;2023-07-31T09:59:54;10.15;;;2.72;;
70369;SDS011;57790;51.356;-2.906;2023-07-31T10:02:57;12.18;;;2.78;;
70369;SDS011;57790;51.356;-2.906;2023-07-31T10:05:59;13.10;;;2.45;;
70369;SDS011;57790;51.356;-2.906;2023-07-31T10:09:09;11.23;;;2.25;;
70369;SDS011;57790;51.356;-2.906;2023-07-31T10:12:12;10.73;;;2.57;;
70369;SDS011;57790;51.356;-2.906;2023-07-31T10:15:14;12.70;;;2.65;;
70369;SDS011;57790;51.356;-2.906;2023-07-31T10:18:15;10.63;;;2.67;;
70369;SDS011;57790;51.356;-2.906;2023-07-31T10:21:18;13.40;;;2.85;;
70369;SDS011;57790;51.356;-2.906;2023-07-31T10:24:18;12.83;;;2.60;;
70369;SDS011;57790;51.356;-2.906;2023-07-31T10:27:19;10.57;;;2.40;;
70369;SDS011;57790;51.356;-2.906;2023-07-31T10:30:28;9.80;;;2.20;;
70369;SDS011;57790;51.356;-2.906;2023-07-31T10:33:30;11.40;;;2.85;;
70369;SDS011;57790;51.356;-2.906;2023-07-31T10:36:31;10.87;;;2.63;;
70369;SDS011;57790;51.356;-2.906;2023-07-31T10:39:35;11.30;;;2.47;;
70369;SDS011;57790;51.356;-2.906;2023-07-31T10:42:44;9.17;;;2.27;;
70369;SDS011;57790;51.356;-2.906;2023-07-31T10:45:49;10.98;;;2.40;;
70369;SDS011;57790;51.356;-2.906;2023-07-31T10:48:57;12.97;;;2.40;;
70369;SDS011;57790;51.356;-2.906;2023-07-31T10:51:58;11.00;;;2.40;;
70369;SDS011;57790;51.356;-2.906;2023-07-31T10:55:15;12.35;;;2.45;;
70369;SDS011;57790;51.356;-2.906;2023-07-31T10:58:18;12.27;;;2.77;;
70369;SDS011;57790;51.356;-2.906;2023-07-31T11:01:20;12.38;;;2.35;;
70369;SDS011;57790;51.356;-2.906;2023-07-31T11:04:24;10.57;;;2.77;;
70369;SDS011;57790;51.356;-2.906;2023-07-31T11:07:26;10.63;;;2.20;;
70369;SDS011;57790;51.356;-2.906;2023-07-31T11:10:47;11.45;;;2.58;;
70369;SDS011;57790;51.356;-2.906;2023-07-31T11:13:50;13.43;;;2.90;;
70369;SDS011;57790;51.356;-2.906;2023-07-31T11:16:52;9.07;;;2.50;;
70369;SDS011;57790;51.356;-2.906;2023-07-31T11:19:52;11.63;;;2.60;;
70369;SDS011;57790;51.356;-2.906;2023-07-31T11:22:53;11.67;;;2.37;;
70369;SDS011;57790;51.356;-2.906;2023-07-31T11:25:53;9.13;;;2.23;;
70369;SDS011;57790;51.356;-2.906;2023-07-31T11:28:59;10.45;;;2.28;;
70369;SDS011;57790;51.356;-2.906;2023-07-31T11:31:59;12.13;;;2.40;;
70369;SDS011;57790;51.356;-2.906;2023-07-31T11:35:00;13.00;;;3.00;;
70369;SDS011;57790;51.356;-2.906;2023-07-31T11:38:00;11.80;;;2.50;;
70369;SDS011;57790;51.356;-2.906;2023-07-31T11:41:02;10.15;;;2.53;;
70369;SDS011;57790;51.356;-2.906;2023-07-31T11:44:03;11.05;;;2.60;;
70369;SDS011;57790;51.356;-2.906;2023-07-31T11:47:04;11.93;;;2.57;;
70369;SDS011;57790;51.356;-2.906;2023-07-31T11:50:05;12.68;;;2.38;;
70369;SDS011;57790;51.356;-2.906;2023-07-31T11:53:07;12.27;;;2.20;;
70369;SDS011;57790;51.356;-2.906;2023-07-31T11:56:10;12.50;;;2.53;;
70369;SDS011;57790;51.356;-2.906;2023-07-31T11:59:13;12.63;;;2.78;;
70369;SDS011;57790;51.356;-2.906;2023-07-31T12:02:14;11.07;;;2.33;;
70369;SDS011;57790;51.356;-2.906;2023-07-31T12:05:15;9.73;;;2.53;;
70369;SDS011;57790;51.356;-2.906;2023-07-31T12:08:16;10.38;;;2.78;;
70369;SDS011;57790;51.356;-2.906;2023-07-31T12:11:16;10.17;;;2.50;;
70369;SDS011;57790;51.356;-2.906;2023-07-31T12:14:27;11.20;;;2.47;;
70369;SDS011;57790;51.356;-2.906;2023-07-31T12:17:31;9.38;;;2.78;;
70369;SDS011;57790;51.356;-2.906;2023-07-31T12:20:31;10.20;;;2.57;;
70369;SDS011;57790;51.356;-2.906;2023-07-31T12:23:33;11.63;;;3.10;;
70369;SDS011;57790;51.356;-2.906;2023-07-31T12:26:35;10.57;;;2.50;;
70369;SDS011;57790;51.356;-2.906;2023-07-31T12:29:35;11.67;;;3.03;;
70369;SDS011;57790;51.356;-2.906;2023-07-31T12:32:36;9.50;;;2.80;;
70369;SDS011;57790;51.356;-2.906;2023-07-31T12:35:37;11.40;;;3.17;;
70369;SDS011;57790;51.356;-2.906;2023-07-31T12:38:40;9.30;;;2.65;;
70369;SDS011;57790;51.356;-2.906;2023-07-31T12:41:41;10.98;;;2.80;;
70369;SDS011;57790;51.356;-2.906;2023-07-31T12:44:41;10.57;;;2.83;;
70369;SDS011;57790;51.356;-2.906;2023-07-31T12:47:42;11.60;;;2.63;;
70369;SDS011;57790;51.356;-2.906;2023-07-31T12:50:42;12.10;;;2.80;;
70369;SDS011;57790;51.356;-2.906;2023-07-31T12:53:43;9.75;;;2.50;;
70369;SDS011;57790;51.356;-2.906;2023-07-31T12:56:43;10.47;;;2.57;;
70369;SDS011;57790;51.356;-2.906;2023-07-31T12:59:44;8.70;;;2.15;;
70369;SDS011;57790;51.356;-2.906;2023-07-31T13:02:45;10.47;;;2.60;;
70369;SDS011;57790;51.356;-2.906;2023-07-31T13:05:45;9.03;;;2.33;;
70369;SDS011;57790;51.356;-2.906;2023-07-31T13:08:46;12.13;;;2.37;;
70369;SDS011;57790;51.356;-2.906;2023-07-31T13:11:46;10.57;;;2.87;;
70369;SDS011;57790;51.356;-2.906;2023-07-31T13:14:46;12.07;;;3.30;;
70369;SDS011;57790;51.356;-2.906;2023-07-31T13:17:47;9.57;;;2.23;;
70369;SDS011;57790;51.356;-2.906;2023-07-31T13:20:47;9.00;;;2.20;;
70369;SDS011;57790;51.356;-2.906;2023-07-31T13:23:47;10.90;;;2.50;;
70369;SDS011;57790;51.356;-2.906;2023-07-31T13:26:48;9.73;;;2.30;;
70369;SDS011;57790;51.356;-2.906;2023-07-31T13:29:48;10.83;;;2.20;;
70369;SDS011;57790;51.356;-2.906;2023-07-31T13:32:49;9.00;;;2.40;;
70369;SDS011;57790;51.356;-2.906;2023-07-31T13:35:49;8.02;;;2.20;;
70369;SDS011;57790;51.356;-2.906;2023-07-31T13:38:50;10.47;;;2.40;;
70369;SDS011;57790;51.356;-2.906;2023-07-31T13:41:50;8.17;;;1.93;;
70369;SDS011;57790;51.356;-2.906;2023-07-31T13:44:50;8.63;;;2.23;;
70369;SDS011;57790;51.356;-2.906;2023-07-31T13:47:51;9.57;;;2.30;;
70369;SDS011;57790;51.356;-2.906;2023-07-31T13:50:51;8.80;;;1.98;;
70369;SDS011;57790;51.356;-2.906;2023-07-31T13:53:52;8.73;;;2.10;;
70369;SDS011;57790;51.356;-2.906;2023-07-31T13:56:52;9.87;;;2.27;;
70369;SDS011;57790;51.356;-2.906;2023-07-31T13:59:53;7.50;;;1.90;;
70369;SDS011;57790;51.356;-2.906;2023-07-31T14:02:53;9.20;;;1.90;;
70369;SDS011;57790;51.356;-2.906;2023-07-31T14:05:54;10.83;;;1.87;;
70369;SDS011;57790;51.356;-2.906;2023-07-31T14:08:55;7.35;;;1.52;;
70369;SDS011;57790;51.356;-2.906;2023-07-31T14:11:56;7.90;;;1.70;;
70369;SDS011;57790;51.356;-2.906;2023-07-31T14:14:56;7.07;;;1.53;;
70369;SDS011;57790;51.356;-2.906;2023-07-31T14:17:57;7.10;;;1.70;;
70369;SDS011;57790;51.356;-2.906;2023-07-31T14:20:57;7.03;;;1.63;;
70369;SDS011;57790;51.356;-2.906;2023-07-31T14:23:57;8.20;;;1.80;;
70369;SDS011;57790;51.356;-2.906;2023-07-31T14:26:58;8.10;;;1.60;;
70369;SDS011;57790;51.356;-2.906;2023-07-31T14:29:58;7.23;;;1.70;;
70369;SDS011;57790;51.356;-2.906;2023-07-31T14:32:58;8.87;;;2.00;;
70369;SDS011;57790;51.356;-2.906;2023-07-31T14:36:00;9.25;;;1.98;;
70369;SDS011;57790;51.356;-2.906;2023-07-31T14:39:02;8.48;;;2.03;;
70369;SDS011;57790;51.356;-2.906;2023-07-31T14:42:02;8.00;;;1.90;;
70369;SDS011;57790;51.356;-2.906;2023-07-31T14:45:04;10.90;;;2.33;;
70369;SDS011;57790;51.356;-2.906;2023-07-31T14:48:05;8.35;;;1.80;;
70369;SDS011;57790;51.356;-2.906;2023-07-31T14:51:05;9.27;;;2.27;;
70369;SDS011;57790;51.356;-2.906;2023-07-31T14:54:06;11.37;;;2.20;;
70369;SDS011;57790;51.356;-2.906;2023-07-31T14:57:06;10.10;;;2.00;;
70369;SDS011;57790;51.356;-2.906;2023-07-31T15:00:07;9.37;;;2.40;;
70369;SDS011;57790;51.356;-2.906;2023-07-31T15:03:08;11.13;;;2.22;;
70369;SDS011;57790;51.356;-2.906;2023-07-31T15:06:08;9.23;;;2.00;;
70369;SDS011;57790;51.356;-2.906;2023-07-31T15:09:09;12.33;;;2.23;;
70369;SDS011;57790;51.356;-2.906;2023-07-31T15:12:09;10.67;;;2.43;;
70369;SDS011;57790;51.356;-2.906;2023-07-31T15:15:10;8.80;;;1.80;;
70369;SDS011;57790;51.356;-2.906;2023-07-31T15:18:10;9.80;;;2.57;;
70369;SDS011;57790;51.356;-2.906;2023-07-31T15:21:11;10.33;;;2.40;;
70369;SDS011;57790;51.356;-2.906;2023-07-31T15:24:11;10.27;;;2.47;;
70369;SDS011;57790;51.356;-2.906;2023-07-31T15:27:12;8.05;;;2.13;;
70369;SDS011;57790;51.356;-2.906;2023-07-31T15:30:12;8.70;;;2.10;;
70369;SDS011;57790;51.356;-2.906;2023-07-31T15:33:12;10.80;;;2.03;;
70369;SDS011;57790;51.356;-2.906;2023-07-31T15:36:13;11.40;;;2.27;;
70369;SDS011;57790;51.356;-2.906;2023-07-31T15:39:14;8.38;;;2.20;;
70369;SDS011;57790;51.356;-2.906;2023-07-31T15:42:15;9.33;;;2.47;;
70369;SDS011;57790;51.356;-2.906;2023-07-31T15:45:15;9.70;;;2.03;;
70369;SDS011;57790;51.356;-2.906;2023-07-31T15:48:15;10.30;;;2.20;;
70369;SDS011;57790;51.356;-2.906;2023-07-31T15:51:16;10.07;;;2.30;;
70369;SDS011;57790;51.356;-2.906;2023-07-31T15:54:16;9.10;;;1.90;;
70369;SDS011;57790;51.356;-2.906;2023-07-31T15:57:17;10.27;;;2.43;;
70369;SDS011;57790;51.356;-2.906;2023-07-31T16:00:17;8.80;;;2.23;;
70369;SDS011;57790;51.356;-2.906;2023-07-31T16:03:17;9.27;;;2.17;;
70369;SDS011;57790;51.356;-2.906;2023-07-31T16:06:19;10.23;;;2.53;;
70369;SDS011;57790;51.356;-2.906;2023-07-31T16:09:20;10.13;;;2.63;;
70369;SDS011;57790;51.356;-2.906;2023-07-31T16:12:20;10.47;;;2.47;;
70369;SDS011;57790;51.356;-2.906;2023-07-31T16:15:20;9.73;;;2.53;;
70369;SDS011;57790;51.356;-2.906;2023-07-31T16:18:21;8.60;;;2.37;;
70369;SDS011;57790;51.356;-2.906;2023-07-31T16:21:21;10.37;;;2.50;;
70369;SDS011;57790;51.356;-2.906;2023-07-31T16:24:22;9.57;;;2.35;;
70369;SDS011;57790;51.356;-2.906;2023-07-31T16:27:22;9.53;;;2.10;;
70369;SDS011;57790;51.356;-2.906;2023-07-31T16:30:24;10.95;;;2.30;;
70369;SDS011;57790;51.356;-2.906;2023-07-31T16:33:25;8.70;;;2.10;;
70369;SDS011;57790;51.356;-2.906;2023-07-31T16:36:25;8.97;;;2.20;;
70369;SDS011;57790;51.356;-2.906;2023-07-31T16:39:25;8.10;;;2.10;;
70369;SDS011;57790;51.356;-2.906;2023-07-31T16:42:26;9.03;;;2.03;;
70369;SDS011;57790;51.356;-2.906;2023-07-31T16:45:27;7.13;;;1.80;;
70369;SDS011;57790;51.356;-2.906;2023-07-31T16:48:27;7.87;;;2.07;;
70369;SDS011;57790;51.356;-2.906;2023-07-31T16:51:28;11.30;;;2.50;;
70369;SDS011;57790;51.356;-2.906;2023-07-31T16:54:28;9.60;;;2.05;;
70369;SDS011;57790;51.356;-2.906;2023-07-31T16:57:29;10.63;;;2.00;;
70369;SDS011;57790;51.356;-2.906;2023-07-31T17:00:33;8.47;;;2.00;;
70369;SDS011;57790;51.356;-2.906;2023-07-31T17:03:33;7.63;;;1.90;;
70369;SDS011;57790;51.356;-2.906;2023-07-31T17:06:33;9.87;;;2.37;;
70369;SDS011;57790;51.356;-2.906;2023-07-31T17:09:34;9.38;;;2.35;;
70369;SDS011;57790;51.356;-2.906;2023-07-31T17:12:35;10.10;;;2.43;;
70369;SDS011;57790;51.356;-2.906;2023-07-31T17:15:35;8.73;;;1.90;;
70369;SDS011;57790;51.356;-2.906;2023-07-31T17:18:35;6.80;;;2.10;;
70369;SDS011;57790;51.356;-2.906;2023-07-31T17:21:36;8.73;;;2.30;;
70369;SDS011;57790;51.356;-2.906;2023-07-31T17:24:36;9.57;;;2.40;;
70369;SDS011;57790;51.356;-2.906;2023-07-31T17:27:37;6.70;;;1.70;;
70369;SDS011;57790;51.356;-2.906;2023-07-31T17:30:37;7.83;;;1.80;;
70369;SDS011;57790;51.356;-2.906;2023-07-31T17:33:38;8.57;;;1.90;;
70369;SDS011;57790;51.356;-2.906;2023-07-31T17:36:38;8.50;;;1.85;;
70369;SDS011;57790;51.356;-2.906;2023-07-31T17:39:39;8.97;;;2.00;;
70369;SDS011;57790;51.356;-2.906;2023-07-31T17:42:39;9.20;;;1.87;;
70369;SDS011;57790;51.356;-2.906;2023-07-31T17:45:40;6.87;;;2.13;;
70369;SDS011;57790;51.356;-2.906;2023-07-31T17:48:40;8.20;;;1.92;;
70369;SDS011;57790;51.356;-2.906;2023-07-31T17:51:42;7.90;;;1.57;;
70369;SDS011;57790;51.356;-2.906;2023-07-31T17:54:43;7.38;;;1.80;;
70369;SDS011;57790;51.356;-2.906;2023-07-31T17:57:43;8.13;;;1.63;;